createdAt,value
2018-04-17T00:00:32.399Z,93.71
2018-04-17T00:03:35.908Z,93.70
2018-04-17T00:06:40.209Z,93.78
2018-04-17T00:09:43.572Z,93.73
2018-04-17T00:12:46.943Z,93.76
2018-04-17T00:15:50.727Z,93.83
2018-04-17T00:18:54.151Z,93.97
2018-04-17T00:21:57.515Z,94.01
2018-04-17T00:25:00.878Z,94.00
2018-04-17T00:28:04.251Z,93.94
2018-04-17T00:31:07.593Z,94.17
2018-04-17T00:34:10.970Z,94.24
2018-04-17T00:37:14.320Z,94.27
2018-04-17T00:40:17.812Z,94.31
2018-04-17T00:43:21.180Z,94.44
2018-04-17T00:46:24.542Z,94.42
2018-04-17T00:49:28.674Z,94.59
2018-04-17T00:52:32.088Z,94.63
2018-04-17T00:55:35.449Z,94.68
2018-04-17T00:58:39.560Z,94.74
2018-04-17T01:01:43.684Z,94.82
2018-04-17T01:04:47.935Z,94.64
2018-04-17T01:07:51.279Z,94.59
2018-04-17T01:10:54.650Z,94.61
2018-04-17T01:13:58.083Z,94.67
2018-04-17T01:17:01.488Z,94.54
2018-04-17T01:20:04.840Z,94.37
2018-04-17T01:23:08.219Z,94.19
2018-04-17T01:26:11.582Z,94.19
2018-04-17T01:29:14.927Z,94.23
2018-04-17T01:32:18.324Z,94.29
2018-04-17T01:35:21.745Z,94.45
2018-04-17T01:38:25.133Z,94.51
2018-04-17T01:41:28.487Z,94.52
2018-04-17T01:44:31.861Z,94.51
2018-04-17T01:47:35.979Z,94.55
2018-04-17T01:50:39.336Z,94.55
2018-04-17T01:53:42.804Z,94.60
2018-04-17T01:56:46.161Z,94.65
2018-04-17T01:59:49.560Z,94.69
2018-04-17T02:02:52.930Z,94.82
2018-04-17T02:05:56.293Z,94.93
2018-04-17T02:08:59.653Z,94.95
2018-04-17T02:12:03.010Z,94.95
2018-04-17T02:15:07.133Z,95.06
2018-04-17T02:18:11.269Z,95.04
2018-04-17T02:21:14.806Z,95.06
2018-04-17T02:24:18.202Z,95.01
2018-04-17T02:27:21.551Z,95.00
2018-04-17T02:30:25.668Z,94.91
2018-04-17T02:33:29.790Z,94.83
2018-04-17T02:36:33.152Z,94.84
2018-04-17T02:39:36.505Z,94.88
2018-04-17T02:42:39.953Z,94.90
2018-04-17T02:45:44.819Z,95.01
2018-04-17T02:48:48.189Z,94.99
2018-04-17T02:51:51.569Z,94.96
2018-04-17T02:54:54.926Z,94.96
2018-04-17T02:57:58.308Z,95.02
2018-04-17T03:01:02.447Z,95.28
2018-04-17T03:04:05.813Z,95.27
2018-04-17T03:07:09.165Z,95.43
2018-04-17T03:10:12.545Z,95.44
2018-04-17T03:13:15.895Z,95.37
2018-04-17T03:16:19.250Z,95.35
2018-04-17T03:19:22.600Z,95.38
2018-04-17T03:22:25.951Z,95.29
2018-04-17T03:25:29.333Z,95.23
2018-04-17T03:28:32.681Z,95.25
2018-04-17T03:31:36.055Z,95.28
2018-04-17T03:34:39.398Z,95.38
2018-04-17T03:37:42.757Z,95.33
2018-04-17T03:40:46.109Z,95.41
2018-04-17T03:43:50.292Z,95.47
2018-04-17T03:46:53.723Z,95.45
2018-04-17T03:49:57.872Z,95.49
2018-04-17T03:53:01.251Z,95.55
2018-04-17T03:56:05.375Z,95.58
2018-04-17T03:59:09.573Z,95.49
2018-04-17T04:02:13.692Z,95.40
2018-04-17T04:05:17.829Z,95.40
2018-04-17T04:08:21.233Z,95.50
2018-04-17T04:11:24.605Z,95.55
2018-04-17T04:14:28.731Z,95.63
2018-04-17T04:17:50.580Z,95.66
2018-04-17T04:21:11.832Z,95.69
2018-04-17T04:24:32.905Z,95.72
2018-04-17T04:27:36.429Z,95.74
2018-04-17T04:30:39.779Z,95.81
2018-04-17T04:33:43.210Z,95.87
2018-04-17T04:36:46.581Z,95.99
2018-04-17T04:39:49.950Z,95.97
2018-04-17T04:42:53.304Z,95.92
2018-04-17T04:45:57.437Z,95.95
2018-04-17T04:49:00.817Z,95.91
2018-04-17T04:52:05.010Z,95.92
2018-04-17T04:55:08.389Z,95.83
2018-04-17T04:58:11.981Z,95.75
2018-04-17T05:01:15.353Z,95.72
2018-04-17T05:04:18.732Z,95.68
2018-04-17T05:07:22.862Z,95.62
2018-04-17T05:10:26.211Z,95.56
2018-04-17T05:13:29.729Z,95.46
2018-04-17T05:16:33.104Z,95.31
2018-04-17T05:19:36.464Z,95.25
2018-04-17T05:22:39.817Z,95.14
2018-04-17T05:25:43.210Z,95.02
2018-04-17T05:28:46.609Z,94.81
2018-04-17T05:31:49.996Z,94.74
2018-04-17T05:34:53.412Z,94.60
2018-04-17T05:37:56.794Z,94.32
2018-04-17T05:41:00.259Z,94.21
2018-04-17T05:44:04.560Z,94.05
2018-04-17T05:47:07.988Z,93.93
2018-04-17T05:50:11.420Z,93.65
2018-04-17T05:53:15.512Z,93.44
2018-04-17T05:56:19.000Z,93.20
2018-04-17T05:59:22.419Z,93.02
2018-04-17T06:02:25.906Z,92.73
2018-04-17T06:05:29.263Z,92.47
2018-04-17T06:08:32.624Z,92.21
2018-04-17T06:11:35.986Z,91.85
2018-04-17T06:14:40.184Z,91.60
2018-04-17T06:17:43.627Z,91.18
2018-04-17T06:20:46.994Z,90.89
2018-04-17T06:23:51.333Z,90.55
2018-04-17T06:26:55.642Z,89.98
2018-04-17T06:29:59.776Z,89.44
2018-04-17T06:33:03.894Z,88.87
2018-04-17T06:36:07.420Z,87.83
2018-04-17T06:39:10.833Z,87.14
2018-04-17T06:42:14.272Z,86.49
2018-04-17T06:45:17.750Z,85.90
2018-04-17T06:48:21.100Z,85.64
2018-04-17T06:51:24.457Z,85.03
2018-04-17T06:54:27.817Z,84.51
2018-04-17T06:57:31.181Z,83.58
2018-04-17T07:00:35.311Z,83.29
2018-04-17T07:03:38.670Z,82.94
2018-04-17T07:06:42.106Z,81.84
2018-04-17T07:09:46.224Z,80.41
2018-04-17T07:12:50.373Z,79.79
2018-04-17T07:15:53.745Z,78.29
2018-04-17T07:18:57.988Z,77.55
2018-04-17T07:22:01.376Z,77.47
2018-04-17T07:25:04.730Z,76.67
2018-04-17T07:28:08.106Z,76.99
2018-04-17T07:31:11.514Z,76.20
2018-04-17T07:34:14.953Z,75.73
2018-04-17T07:37:19.188Z,75.65
2018-04-17T07:40:23.236Z,75.45
2018-04-17T07:43:26.616Z,74.98
2018-04-17T07:46:30.119Z,74.30
2018-04-17T07:49:33.505Z,74.48
2018-04-17T07:52:36.893Z,74.11
2018-04-17T07:55:41.029Z,73.59
2018-04-17T07:58:44.382Z,71.95
2018-04-17T08:01:47.752Z,72.64
2018-04-17T08:04:51.113Z,72.67
2018-04-17T08:07:54.640Z,71.67
2018-04-17T08:10:57.999Z,70.56
2018-04-17T08:14:02.256Z,70.31
2018-04-17T08:17:05.726Z,68.85
2018-04-17T08:20:09.868Z,69.37
2018-04-17T08:23:13.236Z,69.00
2018-04-17T08:26:17.370Z,66.29
2018-04-17T08:29:20.728Z,67.68
2018-04-17T08:32:24.097Z,66.41
2018-04-17T08:35:27.455Z,66.53
2018-04-17T08:38:31.594Z,66.03
2018-04-17T08:41:34.950Z,66.48
2018-04-17T08:44:38.313Z,64.44
2018-04-17T08:47:41.672Z,63.66
2018-04-17T08:50:45.796Z,63.00
2018-04-17T08:53:49.945Z,63.97
2018-04-17T08:56:53.424Z,63.74
2018-04-17T08:59:56.999Z,61.97
2018-04-17T09:03:00.441Z,62.02
2018-04-17T09:06:03.826Z,61.45
2018-04-17T09:09:07.195Z,61.39
2018-04-17T09:12:10.563Z,61.33
2018-04-17T09:15:13.955Z,61.24
2018-04-17T09:18:17.310Z,60.11
2018-04-17T09:21:21.445Z,59.93
2018-04-17T09:24:24.997Z,59.43
2018-04-17T09:27:29.148Z,58.13
2018-04-17T09:30:33.288Z,57.15
2018-04-17T09:33:36.692Z,54.66
2018-04-17T09:36:40.052Z,56.12
2018-04-17T09:39:43.425Z,56.82
2018-04-17T09:42:46.790Z,56.89
2018-04-17T09:45:50.407Z,57.33
2018-04-17T09:48:53.787Z,57.90
2018-04-17T09:51:57.191Z,57.03
2018-04-17T09:55:00.660Z,55.96
2018-04-17T09:58:04.791Z,55.72
2018-04-17T10:01:21.630Z,56.36
2018-04-17T10:04:25.002Z,55.57
2018-04-17T10:07:29.164Z,54.55
2018-04-17T10:10:32.581Z,52.70
2018-04-17T10:13:35.953Z,53.24
2018-04-17T10:16:39.347Z,52.38
2018-04-17T10:19:42.722Z,51.10
2018-04-17T10:22:46.856Z,50.56
2018-04-17T10:25:50.220Z,49.71
2018-04-17T10:28:53.589Z,49.64
2018-04-17T10:31:56.962Z,49.18
2018-04-17T10:35:00.347Z,47.92
2018-04-17T10:38:03.704Z,47.21
2018-04-17T10:41:07.160Z,46.85
2018-04-17T10:44:10.517Z,46.67
2018-04-17T10:47:14.861Z,47.85
2018-04-17T10:50:18.246Z,47.98
2018-04-17T10:53:22.395Z,48.44
2018-04-17T10:56:25.833Z,47.89
2018-04-17T10:59:29.255Z,46.16
2018-04-17T11:02:32.624Z,46.67
2018-04-17T11:05:35.974Z,46.70
2018-04-17T11:08:40.144Z,46.13
2018-04-17T11:11:43.505Z,45.63
2018-04-17T11:14:46.941Z,44.88
2018-04-17T11:17:50.316Z,44.84
2018-04-17T11:20:53.687Z,43.36
2018-04-17T11:23:57.845Z,42.63
2018-04-17T11:27:01.385Z,43.90
2018-04-17T11:30:05.919Z,43.57
2018-04-17T11:33:10.212Z,42.96
2018-04-17T11:36:13.593Z,43.04
2018-04-17T11:39:16.965Z,41.58
2018-04-17T11:42:20.330Z,42.96
2018-04-17T11:45:23.786Z,43.11
2018-04-17T11:48:27.169Z,41.26
2018-04-17T11:51:30.529Z,43.19
2018-04-17T11:54:33.900Z,42.83
2018-04-17T11:57:37.262Z,42.45
2018-04-17T12:00:40.660Z,43.31
2018-04-17T12:03:44.763Z,44.10
2018-04-17T12:06:48.153Z,41.37
2018-04-17T12:09:52.285Z,41.23
2018-04-17T12:12:56.434Z,41.23
2018-04-17T12:15:59.811Z,41.80
2018-04-17T12:19:03.312Z,43.04
2018-04-17T12:22:06.681Z,42.24
2018-04-17T12:25:10.110Z,43.57
2018-04-17T12:28:13.489Z,43.52
2018-04-17T12:31:16.861Z,42.88
2018-04-17T12:34:20.233Z,43.47
2018-04-17T12:37:23.600Z,43.90
2018-04-17T12:40:27.751Z,42.56
2018-04-17T12:43:31.111Z,43.58
2018-04-17T12:46:35.431Z,44.89
2018-04-17T12:49:39.579Z,44.34
2018-04-17T12:52:43.053Z,42.53
2018-04-17T12:55:47.324Z,42.85
2018-04-17T12:58:50.715Z,41.36
2018-04-17T13:01:54.090Z,42.35
2018-04-17T13:04:57.558Z,41.73
2018-04-17T13:08:00.920Z,42.92
2018-04-17T13:11:04.276Z,41.92
2018-04-17T13:14:08.391Z,41.94
2018-04-17T13:17:12.537Z,42.10
2018-04-17T13:20:15.872Z,43.09
2018-04-17T13:23:19.256Z,42.03
2018-04-17T13:26:22.601Z,42.28
2018-04-17T13:29:26.727Z,43.83
2018-04-17T13:32:30.869Z,43.52
2018-04-17T13:35:34.236Z,42.90
2018-04-17T13:38:38.373Z,43.29
2018-04-17T13:41:41.755Z,43.92
2018-04-17T13:44:45.886Z,43.23
2018-04-17T13:47:49.308Z,43.86
2018-04-17T13:50:52.660Z,42.74
2018-04-17T13:53:56.021Z,43.51
2018-04-17T13:56:59.563Z,43.44
2018-04-17T14:00:02.952Z,43.53
2018-04-17T14:03:06.316Z,44.52
2018-04-17T14:06:09.695Z,45.00
2018-04-17T14:09:13.069Z,45.21
2018-04-17T14:12:17.200Z,44.74
2018-04-17T14:15:20.593Z,45.72
2018-04-17T14:18:24.887Z,46.07
2018-04-17T14:21:28.308Z,46.22
2018-04-17T14:24:32.437Z,45.51
2018-04-17T14:27:35.806Z,45.46
2018-04-17T14:30:39.246Z,46.62
2018-04-17T14:33:42.700Z,45.42
2018-04-17T14:36:46.140Z,46.14
2018-04-17T14:39:49.515Z,44.83
2018-04-17T14:42:52.883Z,45.14
2018-04-17T14:45:56.280Z,44.80
2018-04-17T14:48:59.666Z,44.52
2018-04-17T14:52:03.041Z,44.08
2018-04-17T14:55:06.399Z,44.10
2018-04-17T14:58:09.778Z,44.14
2018-04-17T15:01:13.165Z,44.66
2018-04-17T15:04:16.575Z,44.66
2018-04-17T15:07:19.938Z,44.17
2018-04-17T15:10:23.317Z,44.91
2018-04-17T15:13:27.445Z,45.60
2018-04-17T15:16:31.581Z,45.72
2018-04-17T15:19:34.948Z,45.47
2018-04-17T15:22:39.109Z,44.33
2018-04-17T15:25:42.490Z,42.56
2018-04-17T15:28:45.864Z,40.97
2018-04-17T15:31:50.021Z,41.51
2018-04-17T15:34:53.532Z,42.06
2018-04-17T15:37:56.918Z,43.68
2018-04-17T15:41:00.310Z,44.20
2018-04-17T15:44:03.782Z,44.21
2018-04-17T15:47:07.946Z,44.05
2018-04-17T15:50:11.322Z,42.97
2018-04-17T15:53:14.693Z,42.51
2018-04-17T15:56:18.106Z,42.64
2018-04-17T15:59:22.366Z,43.98
2018-04-17T16:02:25.957Z,43.88
2018-04-17T16:05:29.325Z,43.89
2018-04-17T16:08:32.714Z,42.03
2018-04-17T16:11:36.125Z,38.55
2018-04-17T16:14:40.434Z,37.42
2018-04-17T16:17:44.211Z,38.60
2018-04-17T16:20:47.700Z,40.53
2018-04-17T16:23:51.103Z,42.64
2018-04-17T16:26:54.460Z,44.37
2018-04-17T16:29:58.699Z,44.56
2018-04-17T16:33:02.155Z,45.14
2018-04-17T16:36:05.610Z,45.15
2018-04-17T16:39:09.014Z,45.57
2018-04-17T16:42:12.415Z,46.41
2018-04-17T16:45:15.792Z,47.05
2018-04-17T16:48:19.919Z,47.01
2018-04-17T16:51:23.399Z,47.46
2018-04-17T16:54:27.558Z,47.91
2018-04-17T16:57:30.954Z,48.63
2018-04-17T17:00:34.354Z,48.18
2018-04-17T17:03:37.836Z,48.73
2018-04-17T17:06:42.005Z,49.52
2018-04-17T17:09:45.425Z,48.87
2018-04-17T17:12:48.889Z,49.89
2018-04-17T17:15:52.286Z,50.28
2018-04-17T17:18:55.696Z,50.88
2018-04-17T17:21:59.124Z,51.22
2018-04-17T17:25:03.285Z,50.99
2018-04-17T17:28:06.654Z,51.28
2018-04-17T17:31:10.803Z,51.05
2018-04-17T17:34:14.182Z,51.60
2018-04-17T17:37:18.335Z,51.59
2018-04-17T17:40:21.718Z,51.82
2018-04-17T17:43:25.237Z,52.28
2018-04-17T17:46:28.671Z,52.15
2018-04-17T17:49:32.062Z,51.43
2018-04-17T17:52:35.436Z,51.38
2018-04-17T17:55:38.818Z,51.56
2018-04-17T17:58:42.200Z,52.23
2018-04-17T18:01:46.331Z,52.93
2018-04-17T18:04:49.746Z,53.31
2018-04-17T18:07:53.110Z,53.83
2018-04-17T18:10:57.328Z,54.19
2018-04-17T18:14:01.555Z,54.76
2018-04-17T18:17:05.738Z,55.27
2018-04-17T18:20:09.072Z,55.44
2018-04-17T18:23:13.327Z,55.75
2018-04-17T18:26:16.749Z,56.47
2018-04-17T18:29:20.154Z,57.09
2018-04-17T18:32:23.714Z,57.38
2018-04-17T18:35:27.145Z,57.83
2018-04-17T18:38:30.529Z,58.42
2018-04-17T18:41:33.968Z,58.89
2018-04-17T18:44:37.432Z,59.78
2018-04-17T18:47:40.812Z,59.87
2018-04-17T18:50:44.197Z,60.26
2018-04-17T18:53:48.333Z,60.68
2018-04-17T18:56:51.710Z,61.34
2018-04-17T18:59:56.040Z,61.92
2018-04-17T19:03:00.170Z,62.29
2018-04-17T19:06:03.736Z,62.45
2018-04-17T19:09:07.113Z,62.90
2018-04-17T19:12:10.550Z,62.94
2018-04-17T19:15:14.739Z,63.12
2018-04-17T19:18:18.122Z,63.24
2018-04-17T19:21:21.514Z,63.42
2018-04-17T19:24:24.911Z,63.57
2018-04-17T19:27:28.295Z,63.89
2018-04-17T19:30:31.692Z,64.13
2018-04-17T19:33:35.076Z,64.52
2018-04-17T19:36:39.218Z,64.69
2018-04-17T19:39:42.638Z,64.68
2018-04-17T19:42:46.002Z,64.81
2018-04-17T19:45:49.376Z,65.15
2018-04-17T19:48:52.767Z,65.58
2018-04-17T19:51:56.134Z,65.95
2018-04-17T19:54:59.513Z,65.99
2018-04-17T19:58:02.915Z,66.03
2018-04-17T20:01:06.285Z,67.07
2018-04-17T20:04:10.444Z,67.34
2018-04-17T20:07:13.846Z,67.19
2018-04-17T20:10:17.225Z,67.23
2018-04-17T20:13:20.615Z,67.68
2018-04-17T20:16:23.990Z,68.13
2018-04-17T20:19:27.397Z,68.18
2018-04-17T20:22:31.541Z,68.36
2018-04-17T20:25:34.925Z,68.70
2018-04-17T20:28:39.071Z,69.19
2018-04-17T20:31:42.505Z,70.02
2018-04-17T20:34:45.866Z,70.15
2018-04-17T20:37:49.245Z,70.17
2018-04-17T20:40:53.485Z,70.27
2018-04-17T20:43:56.883Z,70.32
2018-04-17T20:47:00.248Z,70.36
2018-04-17T20:50:04.385Z,70.40
2018-04-17T20:53:07.796Z,70.55
2018-04-17T20:56:11.207Z,70.70
2018-04-17T20:59:14.566Z,70.89
2018-04-17T21:02:18.710Z,71.17
2018-04-17T21:05:22.082Z,71.60
2018-04-17T21:08:26.207Z,71.92
2018-04-17T21:11:30.351Z,72.04
2018-04-17T21:14:33.724Z,72.32
2018-04-17T21:17:37.930Z,72.79
2018-04-17T21:20:41.315Z,73.08
2018-04-17T21:23:44.691Z,73.11
2018-04-17T21:26:48.068Z,73.01
2018-04-17T21:29:51.465Z,73.13
2018-04-17T21:32:54.851Z,73.22
2018-04-17T21:35:59.041Z,73.33
2018-04-17T21:39:02.408Z,73.28
2018-04-17T21:42:05.879Z,73.45
2018-04-17T21:45:09.310Z,73.60
2018-04-17T21:48:12.694Z,73.65
2018-04-17T21:51:16.069Z,73.59
2018-04-17T21:54:19.529Z,73.51
2018-04-17T21:57:22.867Z,73.47
2018-04-17T22:00:26.275Z,73.29
2018-04-17T22:03:29.639Z,73.24
2018-04-17T22:06:33.021Z,73.19
2018-04-17T22:09:36.405Z,73.09
2018-04-17T22:12:39.818Z,73.08
2018-04-17T22:15:43.199Z,73.00
2018-04-17T22:18:46.562Z,73.02
2018-04-17T22:21:50.804Z,72.96
2018-04-17T22:24:54.212Z,72.92
2018-04-17T22:27:57.583Z,72.89
2018-04-17T22:31:01.706Z,72.81
2018-04-17T22:34:05.090Z,72.86
2018-04-17T22:37:09.253Z,72.95
2018-04-17T22:40:12.617Z,73.17
2018-04-17T22:43:16.760Z,73.29
2018-04-17T22:46:20.175Z,73.42
2018-04-17T22:49:23.590Z,73.50
2018-04-17T22:52:27.041Z,73.50
2018-04-17T22:55:30.412Z,73.44
2018-04-17T22:58:33.896Z,73.54
2018-04-17T23:01:37.256Z,73.82
2018-04-17T23:04:40.633Z,73.81
2018-04-17T23:07:44.764Z,73.67
2018-04-17T23:10:48.121Z,73.80
2018-04-17T23:13:51.494Z,73.38
2018-04-17T23:16:54.849Z,73.33
2018-04-17T23:19:58.984Z,73.37
2018-04-17T23:23:02.345Z,73.31
2018-04-17T23:26:06.478Z,73.51
2018-04-17T23:29:10.622Z,73.79
2018-04-17T23:32:14.026Z,74.04
2018-04-17T23:35:17.385Z,74.29
2018-04-17T23:38:21.801Z,74.41
2018-04-17T23:41:25.236Z,74.62
2018-04-17T23:44:28.677Z,74.67
2018-04-17T23:47:32.056Z,74.72
2018-04-17T23:50:35.486Z,74.63
2018-04-17T23:53:39.748Z,74.55
2018-04-17T23:56:44.054Z,74.74
2018-04-17T23:59:48.207Z,74.62
